Time;durP1;ratioP1;P1;durP2;ratioP2;P2;SDS_P1;SDS_P2;PMS_P1;PMS_P2;Temp;Humidity;BMP_temperature;BMP_pressure;BME280_temperature;BME280_humidity;BME280_pressure;Samples;Min_cycle;Max_cycle;Signal;HPM_P1;HPM_P2
2023/10/20 00:02:15;;;;;;;17.03;10.83;;;8.60;99.90;;;;;;5041671;28;20441;-69
2023/10/20 00:04:42;;;;;;;15.23;11.00;;;8.70;99.90;;;;;;5040943;28;20542;-70
2023/10/20 00:07:09;;;;;;;16.80;10.57;;;8.60;99.90;;;;;;5041972;28;20452;-70
2023/10/20 00:09:36;;;;;;;14.27;11.30;;;8.60;99.90;;;;;;5041558;28;20440;-69
2023/10/20 00:12:04;;;;;;;17.97;10.63;;;8.70;99.90;;;;;;5041210;28;20560;-71
2023/10/20 00:14:31;;;;;;;19.60;12.10;;;8.60;99.90;;;;;;5041396;28;20543;-70
2023/10/20 00:16:59;;;;;;;17.00;11.03;;;8.60;99.90;;;;;;5040809;28;20476;-70
2023/10/20 00:19:26;;;;;;;17.40;10.83;;;8.70;99.90;;;;;;5040543;28;20504;-71
2023/10/20 00:21:54;;;;;;;17.40;11.20;;;8.70;99.90;;;;;;5040542;28;20472;-71
2023/10/20 00:24:22;;;;;;;18.47;11.07;;;8.70;99.90;;;;;;5040690;28;20488;-70
2023/10/20 00:26:49;;;;;;;15.83;11.03;;;8.70;99.90;;;;;;5040436;28;20487;-70
2023/10/20 00:29:16;;;;;;;16.87;11.50;;;8.60;99.90;;;;;;5041174;28;20858;-70
2023/10/20 00:31:43;;;;;;;14.90;10.53;;;8.70;99.90;;;;;;5041177;28;20482;-66
2023/10/20 00:34:11;;;;;;;18.33;11.77;;;8.70;99.90;;;;;;5040688;28;20448;-71
2023/10/20 00:36:38;;;;;;;15.50;11.70;;;8.60;99.90;;;;;;5041464;28;20455;-71
2023/10/20 00:39:06;;;;;;;16.47;11.10;;;8.60;99.90;;;;;;5041503;28;20470;-71
2023/10/20 00:41:35;;;;;;;17.73;11.30;;;8.60;99.90;;;;;;5040653;28;20543;-71
2023/10/20 00:44:03;;;;;;;15.87;11.40;;;8.60;99.90;;;;;;5040712;28;20452;-70
2023/10/20 00:46:30;;;;;;;15.33;10.67;;;8.60;99.90;;;;;;5040723;28;20448;-65
2023/10/20 00:48:57;;;;;;;16.90;11.63;;;8.60;99.90;;;;;;5040403;28;20472;-71
2023/10/20 00:51:26;;;;;;;16.57;10.53;;;8.60;99.90;;;;;;5040296;28;20987;-65
2023/10/20 00:53:53;;;;;;;21.80;11.40;;;8.60;99.90;;;;;;5040045;28;20968;-74
2023/10/20 00:56:20;;;;;;;14.90;10.43;;;8.50;99.90;;;;;;5040185;28;20435;-71
2023/10/20 00:58:47;;;;;;;16.77;10.33;;;8.50;99.90;;;;;;5039841;28;20486;-71
2023/10/20 01:01:14;;;;;;;14.73;10.30;;;8.60;99.90;;;;;;5040617;28;20486;-72
2023/10/20 01:03:41;;;;;;;17.17;11.17;;;8.60;99.90;;;;;;5040643;28;20479;-72
2023/10/20 01:06:08;;;;;;;14.23;9.60;;;8.60;99.90;;;;;;5039444;28;20547;-71
2023/10/20 01:08:37;;;;;;;14.03;10.60;;;8.60;99.90;;;;;;5040498;28;20532;-71
2023/10/20 01:11:05;;;;;;;14.63;10.87;;;8.60;99.90;;;;;;5040336;28;20448;-72
2023/10/20 01:13:32;;;;;;;15.23;9.73;;;8.60;99.90;;;;;;5040259;28;20487;-71
2023/10/20 01:15:58;;;;;;;16.10;10.33;;;8.60;99.90;;;;;;5040293;28;20459;-70
2023/10/20 01:18:25;;;;;;;14.23;9.67;;;8.60;99.90;;;;;;5039709;28;20488;-71
2023/10/20 01:20:52;;;;;;;20.80;10.50;;;8.60;99.90;;;;;;5040583;28;20478;-70
2023/10/20 01:23:19;;;;;;;14.23;10.80;;;8.60;99.90;;;;;;5039991;28;20474;-69
2023/10/20 01:25:47;;;;;;;14.80;11.30;;;8.60;99.90;;;;;;5040209;28;20463;-69
2023/10/20 01:28:16;;;;;;;18.40;11.00;;;8.60;99.90;;;;;;5039434;28;20452;-70
2023/10/20 01:30:43;;;;;;;14.93;10.57;;;8.60;99.90;;;;;;5038947;28;20575;-70
2023/10/20 01:33:10;;;;;;;14.93;11.00;;;8.60;99.90;;;;;;5038201;28;20507;-69
2023/10/20 01:35:37;;;;;;;14.90;9.80;;;8.60;99.90;;;;;;5038431;28;20527;-69
2023/10/20 01:38:04;;;;;;;14.63;10.27;;;8.60;99.90;;;;;;5039043;28;20476;-73
2023/10/20 01:40:31;;;;;;;14.00;9.20;;;8.60;99.90;;;;;;5038641;28;20539;-71
2023/10/20 01:43:00;;;;;;;18.80;11.07;;;8.60;99.90;;;;;;5039154;28;20492;-71
2023/10/20 01:45:28;;;;;;;13.17;9.60;;;8.60;99.90;;;;;;5041246;28;20452;-72
2023/10/20 01:47:55;;;;;;;12.70;7.90;;;8.60;99.90;;;;;;5042699;28;20447;-70
2023/10/20 01:50:22;;;;;;;15.87;9.53;;;8.60;99.90;;;;;;5043027;28;20463;-71
2023/10/20 01:52:48;;;;;;;13.67;8.70;;;8.60;99.90;;;;;;5043381;28;20534;-70
2023/10/20 01:55:16;;;;;;;12.87;9.60;;;8.60;99.90;;;;;;5043885;28;20464;-72
2023/10/20 01:57:42;;;;;;;13.27;8.87;;;8.60;99.90;;;;;;5043416;28;20429;-72
2023/10/20 02:00:14;;;;;;;14.00;8.70;;;8.50;99.90;;;;;;5042880;28;20487;-66
2023/10/20 02:02:41;;;;;;;15.73;8.33;;;8.50;99.90;;;;;;5042603;28;20468;-71
2023/10/20 02:05:12;;;;;;;11.97;8.20;;;8.50;99.90;;;;;;5042890;28;20530;-71
2023/10/20 02:07:39;;;;;;;14.80;9.87;;;8.50;99.90;;;;;;5042519;28;20478;-68
2023/10/20 02:10:07;;;;;;;13.10;8.07;;;8.50;99.90;;;;;;5043724;28;20459;-67
2023/10/20 02:12:34;;;;;;;12.03;9.13;;;8.60;99.90;;;;;;5043466;28;20489;-71
2023/10/20 02:15:01;;;;;;;9.13;6.60;;;8.40;99.90;;;;;;5042734;28;20447;-71
2023/10/20 02:17:29;;;;;;;9.67;6.73;;;8.60;99.90;;;;;;5043259;28;20471;-71
2023/10/20 02:19:56;;;;;;;10.27;7.80;;;8.60;99.90;;;;;;5042663;28;20968;-71
2023/10/20 02:22:25;;;;;;;11.30;7.97;;;8.60;99.90;;;;;;5042983;28;20464;-72
2023/10/20 02:24:52;;;;;;;11.37;8.17;;;8.70;99.90;;;;;;5043041;28;20443;-69
2023/10/20 02:27:19;;;;;;;10.93;6.87;;;8.70;99.90;;;;;;5042682;28;20479;-70
2023/10/20 02:29:46;;;;;;;11.40;7.97;;;8.70;99.90;;;;;;5042625;28;20447;-70
2023/10/20 02:32:13;;;;;;;11.90;7.80;;;8.70;99.90;;;;;;5043178;28;20883;-71
2023/10/20 02:34:41;;;;;;;11.10;7.77;;;8.70;99.90;;;;;;5042827;28;20471;-69
2023/10/20 02:37:11;;;;;;;9.73;7.03;;;8.70;99.90;;;;;;5042582;28;20491;-71
2023/10/20 02:39:38;;;;;;;9.70;6.93;;;8.70;99.90;;;;;;5043210;28;20476;-71
2023/10/20 02:42:06;;;;;;;7.37;5.03;;;8.70;99.90;;;;;;5042992;28;20436;-69
2023/10/20 02:44:32;;;;;;;8.83;6.63;;;8.70;99.90;;;;;;5042460;28;20464;-72
2023/10/20 02:46:59;;;;;;;7.90;5.30;;;8.70;99.90;;;;;;5042613;28;20805;-71
2023/10/20 02:49:26;;;;;;;8.10;5.90;;;8.60;99.90;;;;;;5042830;28;20480;-69
2023/10/20 02:51:55;;;;;;;8.10;5.50;;;8.60;99.90;;;;;;5042510;28;20476;-69
2023/10/20 02:54:22;;;;;;;6.60;5.37;;;8.60;99.90;;;;;;5044011;28;20444;-71
2023/10/20 02:56:48;;;;;;;7.30;5.30;;;8.60;99.90;;;;;;5042417;28;20528;-72
2023/10/20 02:59:15;;;;;;;6.90;5.03;;;8.60;99.90;;;;;;5043758;28;20433;-70
2023/10/20 03:01:43;;;;;;;7.00;5.27;;;8.50;99.90;;;;;;5043140;28;20494;-69
2023/10/20 03:04:12;;;;;;;7.17;4.73;;;8.60;99.90;;;;;;5042731;28;20482;-71
2023/10/20 03:06:39;;;;;;;7.10;4.80;;;8.50;99.90;;;;;;5043059;28;20444;-70
2023/10/20 03:09:07;;;;;;;7.77;3.70;;;8.50;99.90;;;;;;5042479;28;20471;-68
2023/10/20 03:11:34;;;;;;;5.87;3.80;;;8.50;99.90;;;;;;5042731;28;20456;-72
2023/10/20 03:14:01;;;;;;;4.67;3.53;;;8.50;99.90;;;;;;5042395;28;20527;-71
2023/10/20 03:16:28;;;;;;;5.30;3.63;;;8.50;99.90;;;;;;5042796;28;20476;-71
2023/10/20 03:18:55;;;;;;;4.53;3.10;;;8.40;99.90;;;;;;5043972;28;20440;-71
2023/10/20 03:21:23;;;;;;;4.97;4.00;;;8.40;99.90;;;;;;5042727;28;20444;-66
2023/10/20 03:23:50;;;;;;;5.33;3.90;;;8.40;99.90;;;;;;5042712;28;20428;-72
2023/10/20 03:26:18;;;;;;;6.77;4.37;;;8.40;99.90;;;;;;5041419;28;20479;-73
2023/10/20 03:28:45;;;;;;;5.60;4.20;;;8.40;99.90;;;;;;5041979;28;20958;-73
2023/10/20 03:31:12;;;;;;;4.40;3.17;;;8.40;99.90;;;;;;5042334;28;20855;-71
2023/10/20 03:33:39;;;;;;;6.63;4.70;;;8.40;99.90;;;;;;5042361;28;20484;-73
2023/10/20 03:36:08;;;;;;;4.93;4.00;;;8.40;99.90;;;;;;5043304;28;20421;-72
2023/10/20 03:38:35;;;;;;;9.13;4.00;;;8.40;99.90;;;;;;5042927;28;20516;-73
2023/10/20 03:41:06;;;;;;;8.93;3.97;;;8.40;99.90;;;;;;5042793;28;20504;-73
2023/10/20 03:43:35;;;;;;;5.00;3.83;;;8.30;99.90;;;;;;5042325;28;20437;-72
2023/10/20 03:46:03;;;;;;;5.73;5.10;;;8.30;99.90;;;;;;5042399;28;20454;-69
2023/10/20 03:48:33;;;;;;;6.43;4.20;;;8.30;99.90;;;;;;5042287;28;20566;-70
2023/10/20 03:51:00;;;;;;;6.10;4.80;;;8.30;99.90;;;;;;5042276;28;20503;-72
2023/10/20 03:53:29;;;;;;;5.93;4.20;;;8.30;99.90;;;;;;5042026;28;20491;-71
2023/10/20 03:56:00;;;;;;;5.80;4.53;;;8.30;99.90;;;;;;5042187;28;20454;-71
2023/10/20 03:58:28;;;;;;;6.67;4.60;;;8.30;99.90;;;;;;5042447;28;20444;-69
2023/10/20 04:00:57;;;;;;;7.43;4.90;;;8.30;99.90;;;;;;5042405;28;20424;-67
2023/10/20 04:03:25;;;;;;;6.07;4.70;;;8.30;99.90;;;;;;5042220;28;20559;-73
2023/10/20 04:05:53;;;;;;;9.43;5.40;;;8.40;99.90;;;;;;5041180;28;20464;-71
2023/10/20 04:08:20;;;;;;;4.97;3.90;;;8.40;99.90;;;;;;5040578;28;20459;-72
2023/10/20 04:10:47;;;;;;;7.47;5.90;;;8.30;99.90;;;;;;5058528;28;20424;-48
2023/10/20 04:13:16;;;;;;;6.43;4.83;;;8.30;99.90;;;;;;5059612;28;20436;-50
2023/10/20 04:15:44;;;;;;;8.27;5.03;;;8.30;99.90;;;;;;5059397;28;20421;-48
2023/10/20 04:18:12;;;;;;;6.50;4.80;;;8.20;99.90;;;;;;5059446;28;20449;-50
2023/10/20 04:20:42;;;;;;;5.50;3.63;;;8.20;99.90;;;;;;5059438;28;20444;-50
2023/10/20 04:23:09;;;;;;;8.10;5.60;;;8.20;99.90;;;;;;5059401;28;20441;-52
2023/10/20 04:25:52;;;;;;;8.40;4.80;;;8.20;99.90;;;;;;5059457;28;20416;-49
2023/10/20 04:28:20;;;;;;;6.97;4.93;;;8.20;99.90;;;;;;5059379;28;20405;-50
2023/10/20 04:41:55;;;;;;;6.30;4.43;;;8.20;99.90;;;;;;5059121;28;20444;-51
2023/10/20 04:58:13;;;;;;;7.13;4.60;;;8.30;99.90;;;;;;5059025;28;20389;-48
2023/10/20 05:00:42;;;;;;;9.90;5.20;;;8.20;99.90;;;;;;5058864;28;20444;-53
2023/10/20 05:03:16;;;;;;;8.23;5.80;;;8.20;99.90;;;;;;5058884;28;20424;-50
2023/10/20 05:05:53;;;;;;;6.27;4.90;;;8.30;99.90;;;;;;5058652;28;20428;-51
2023/10/20 05:08:24;;;;;;;6.80;4.57;;;8.20;99.90;;;;;;5058814;28;20424;-49
2023/10/20 05:10:52;;;;;;;10.10;6.20;;;8.30;99.90;;;;;;5058792;28;20463;-51
2023/10/20 05:13:22;;;;;;;7.50;5.50;;;8.30;99.90;;;;;;5058741;28;20529;-48
2023/10/20 05:15:51;;;;;;;8.47;6.17;;;8.20;99.90;;;;;;5058861;28;20503;-50
2023/10/20 05:18:20;;;;;;;6.60;5.30;;;8.10;99.90;;;;;;5058651;28;20436;-49
2023/10/20 05:20:55;;;;;;;6.67;5.07;;;8.10;99.90;;;;;;5060323;28;20428;-53
2023/10/20 05:23:21;;;;;;;8.60;5.10;;;8.00;99.90;;;;;;5062744;28;20436;-47
2023/10/20 05:25:49;;;;;;;5.57;5.00;;;7.90;99.90;;;;;;5062759;28;20419;-49
2023/10/20 05:28:17;;;;;;;7.70;5.93;;;7.90;99.90;;;;;;5062649;28;20440;-51
2023/10/20 05:30:45;;;;;;;10.80;6.27;;;7.90;99.90;;;;;;5062635;28;20401;-47
2023/10/20 05:33:12;;;;;;;7.90;5.60;;;7.90;99.90;;;;;;5062476;28;20452;-49
2023/10/20 05:35:40;;;;;;;10.20;6.60;;;7.90;99.90;;;;;;5062307;28;20444;-51
2023/10/20 05:38:15;;;;;;;6.67;4.83;;;8.00;99.90;;;;;;5062481;28;20409;-49
2023/10/20 05:40:42;;;;;;;10.23;6.37;;;7.90;99.90;;;;;;5062500;28;20432;-49
2023/10/20 05:43:09;;;;;;;7.53;5.07;;;8.00;99.90;;;;;;5062448;28;20456;-50
2023/10/20 05:45:40;;;;;;;7.90;6.53;;;8.00;99.90;;;;;;5062362;28;20443;-49
2023/10/20 05:48:07;;;;;;;9.37;5.97;;;7.90;99.90;;;;;;5062329;28;20421;-51
2023/10/20 05:50:36;;;;;;;7.97;6.30;;;7.90;99.90;;;;;;5062127;28;20412;-51
2023/10/20 05:53:04;;;;;;;9.03;6.70;;;7.90;99.90;;;;;;5062216;28;20499;-54
2023/10/20 05:55:33;;;;;;;8.30;5.43;;;7.90;99.90;;;;;;5062172;28;20476;-49
2023/10/20 05:58:00;;;;;;;8.60;6.10;;;7.90;99.90;;;;;;5062212;28;20456;-50
2023/10/20 06:00:27;;;;;;;10.97;6.40;;;8.00;99.90;;;;;;5062140;28;20408;-47
2023/10/20 06:02:54;;;;;;;8.07;5.80;;;7.90;99.90;;;;;;5061922;28;20450;-50
2023/10/20 06:05:22;;;;;;;13.17;8.43;;;7.90;99.90;;;;;;5062041;28;20432;-46
2023/10/20 06:07:51;;;;;;;13.17;6.00;;;7.90;99.90;;;;;;5061960;28;20444;-49
2023/10/20 06:10:24;;;;;;;19.20;6.53;;;7.80;99.90;;;;;;5061887;28;20400;-51
2023/10/20 06:12:54;;;;;;;7.17;6.00;;;7.80;99.90;;;;;;5061856;28;20416;-54
2023/10/20 06:15:22;;;;;;;10.17;7.03;;;7.80;99.90;;;;;;5061841;28;20409;-47
2023/10/20 06:17:50;;;;;;;10.23;6.77;;;7.80;99.90;;;;;;5061786;28;20413;-49
2023/10/20 06:20:18;;;;;;;12.57;7.83;;;7.80;99.90;;;;;;5061745;28;20496;-49
2023/10/20 06:22:45;;;;;;;8.07;6.70;;;7.80;99.90;;;;;;5061649;28;20437;-52
2023/10/20 06:25:13;;;;;;;11.60;7.07;;;7.80;99.90;;;;;;5061610;28;20436;-51
2023/10/20 06:27:42;;;;;;;8.97;6.70;;;7.80;99.90;;;;;;5061541;28;20423;-49
2023/10/20 06:30:19;;;;;;;14.83;6.97;;;7.80;99.90;;;;;;5061332;28;20448;-51
2023/10/20 06:32:51;;;;;;;10.97;7.50;;;7.90;99.90;;;;;;5060489;28;20424;-47
2023/10/20 06:35:19;;;;;;;11.60;7.87;;;7.80;99.90;;;;;;5061278;28;20476;-49
2023/10/20 06:37:55;;;;;;;9.80;7.23;;;7.80;99.90;;;;;;5061337;28;20424;-53
2023/10/20 06:40:25;;;;;;;9.03;6.10;;;7.90;99.90;;;;;;5061329;28;20463;-49
2023/10/20 06:42:53;;;;;;;9.90;6.40;;;7.80;99.90;;;;;;5061358;28;20401;-51
2023/10/20 06:45:22;;;;;;;10.67;6.53;;;7.90;99.90;;;;;;5061197;28;20451;-50
2023/10/20 06:47:49;;;;;;;7.43;5.20;;;7.80;99.90;;;;;;5061243;28;20414;-49
2023/10/20 06:50:15;;;;;;;8.87;6.90;;;7.80;99.90;;;;;;5061081;28;20448;-50
2023/10/20 06:52:42;;;;;;;9.40;7.10;;;7.70;99.90;;;;;;5061085;28;20424;-51
2023/10/20 06:55:10;;;;;;;10.93;6.90;;;7.80;99.90;;;;;;5060801;28;20514;-52
2023/10/20 06:57:39;;;;;;;12.90;6.77;;;7.70;99.90;;;;;;5061095;28;20444;-50
2023/10/20 07:00:17;;;;;;;12.00;6.97;;;7.80;99.90;;;;;;5060925;28;20416;-51
2023/10/20 07:02:45;;;;;;;9.50;5.90;;;7.70;99.90;;;;;;5060877;28;20404;-54
2023/10/20 07:05:12;;;;;;;11.47;6.63;;;7.80;99.90;;;;;;5060811;28;20424;-52
2023/10/20 07:07:38;;;;;;;10.80;7.10;;;7.70;99.90;;;;;;5060856;28;20408;-49
2023/10/20 07:10:10;;;;;;;12.07;6.13;;;7.80;99.90;;;;;;5060831;28;20417;-51
2023/10/20 07:12:37;;;;;;;10.67;6.80;;;7.70;99.90;;;;;;5060667;28;20433;-49
2023/10/20 07:15:06;;;;;;;15.63;7.80;;;7.70;99.90;;;;;;5060526;28;20447;-51
2023/10/20 07:17:34;;;;;;;7.60;5.47;;;7.70;99.90;;;;;;5060456;28;20452;-52
2023/10/20 07:20:05;;;;;;;9.70;5.40;;;7.70;99.90;;;;;;5060635;28;20437;-46
2023/10/20 07:22:32;;;;;;;8.03;5.70;;;7.70;99.90;;;;;;5060795;28;20421;-54
2023/10/20 07:24:59;;;;;;;9.37;5.57;;;7.70;99.90;;;;;;5060582;28;20447;-50
2023/10/20 07:27:33;;;;;;;8.97;5.77;;;7.70;99.90;;;;;;5060371;28;20436;-50
2023/10/20 07:30:00;;;;;;;11.73;6.63;;;7.70;99.90;;;;;;5060459;28;20408;-49
2023/10/20 07:32:32;;;;;;;9.57;6.67;;;7.70;99.90;;;;;;5060308;28;20456;-48
2023/10/20 07:35:02;;;;;;;9.53;5.63;;;7.70;99.90;;;;;;5060197;28;20446;-52
2023/10/20 07:37:34;;;;;;;7.33;5.80;;;7.70;99.90;;;;;;5060129;28;20452;-49
2023/10/20 07:40:00;;;;;;;8.90;5.97;;;7.60;99.90;;;;;;5060233;28;20405;-49
2023/10/20 07:42:27;;;;;;;10.13;6.57;;;7.60;99.90;;;;;;5060012;28;20436;-48
2023/10/20 07:44:54;;;;;;;10.23;6.63;;;7.60;99.90;;;;;;5060003;28;20435;-50
2023/10/20 07:47:21;;;;;;;8.23;6.17;;;7.60;99.90;;;;;;5059838;28;20432;-51
2023/10/20 07:49:51;;;;;;;8.60;7.27;;;7.60;99.90;;;;;;5059960;28;20405;-48
2023/10/20 07:52:21;;;;;;;14.60;7.83;;;7.60;99.90;;;;;;5059526;28;20483;-54
2023/10/20 07:54:49;;;;;;;9.93;6.90;;;7.50;99.90;;;;;;5059763;28;20486;-54
2023/10/20 07:57:17;;;;;;;9.80;6.57;;;7.50;99.90;;;;;;5059827;28;20416;-54
2023/10/20 07:59:44;;;;;;;7.87;5.80;;;7.60;99.90;;;;;;5059721;28;20401;-52
2023/10/20 08:02:11;;;;;;;12.23;6.40;;;7.70;99.90;;;;;;5059821;28;20503;-48
2023/10/20 08:04:40;;;;;;;10.97;7.00;;;7.70;99.90;;;;;;5059844;28;20424;-51
2023/10/20 08:07:07;;;;;;;9.93;6.73;;;7.70;99.90;;;;;;5059583;28;20424;-56
2023/10/20 08:09:36;;;;;;;10.27;6.53;;;7.70;99.90;;;;;;5059638;28;20408;-52
2023/10/20 08:12:05;;;;;;;11.33;6.50;;;7.60;99.90;;;;;;5059617;28;20428;-51
2023/10/20 08:14:33;;;;;;;7.60;5.10;;;7.60;99.90;;;;;;5059437;28;20483;-53
2023/10/20 08:17:07;;;;;;;10.17;6.10;;;7.60;99.90;;;;;;5059549;28;20428;-50
2023/10/20 08:19:35;;;;;;;8.80;5.83;;;7.70;99.90;;;;;;5059529;28;20456;-53
2023/10/20 08:22:03;;;;;;;8.13;6.37;;;7.60;99.90;;;;;;5059466;28;20428;-52
2023/10/20 08:24:33;;;;;;;7.77;5.80;;;7.70;99.90;;;;;;5059313;28;20499;-46
2023/10/20 08:27:00;;;;;;;9.00;6.23;;;7.70;99.90;;;;;;5059238;28;20408;-52
2023/10/20 08:29:33;;;;;;;5.07;4.40;;;7.70;99.90;;;;;;5059245;28;20435;-48
2023/10/20 08:32:06;;;;;;;10.60;6.43;;;7.70;99.90;;;;;;5059223;28;20427;-50
2023/10/20 08:34:35;;;;;;;8.53;5.40;;;7.70;99.90;;;;;;5058996;28;20476;-50
2023/10/20 08:37:06;;;;;;;8.80;5.60;;;7.70;99.90;;;;;;5058801;28;20408;-50
2023/10/20 08:39:34;;;;;;;6.20;5.30;;;7.60;99.90;;;;;;5059136;28;20436;-51
2023/10/20 08:42:02;;;;;;;9.47;5.87;;;7.60;99.90;;;;;;5059155;28;20433;-49
2023/10/20 08:44:31;;;;;;;6.23;4.33;;;7.60;99.90;;;;;;5058935;28;20450;-51
2023/10/20 08:46:59;;;;;;;8.63;5.57;;;7.60;99.90;;;;;;5059132;28;20483;-49
2023/10/20 08:49:27;;;;;;;7.37;5.60;;;7.60;99.90;;;;;;5058940;28;20424;-54
2023/10/20 08:51:58;;;;;;;6.77;4.80;;;7.60;99.90;;;;;;5058959;28;20424;-49
2023/10/20 08:54:27;;;;;;;6.27;5.33;;;7.60;99.90;;;;;;5058877;28;20444;-53
2023/10/20 08:56:54;;;;;;;10.67;5.40;;;7.60;99.90;;;;;;5058547;28;20447;-48
2023/10/20 08:59:21;;;;;;;8.50;4.83;;;7.60;99.90;;;;;;5058978;28;20419;-50
2023/10/20 09:01:49;;;;;;;7.40;5.30;;;7.60;99.90;;;;;;5058725;28;20428;-51
2023/10/20 09:04:22;;;;;;;9.40;4.87;;;7.50;99.90;;;;;;5058909;28;20420;-52
2023/10/20 09:06:53;;;;;;;6.73;5.30;;;7.50;99.90;;;;;;5058721;28;20503;-52
2023/10/20 09:09:20;;;;;;;7.50;5.57;;;7.50;99.90;;;;;;5058797;28;20444;-48
2023/10/20 09:11:49;;;;;;;8.97;5.53;;;7.50;99.90;;;;;;5058626;28;20433;-52
2023/10/20 09:14:16;;;;;;;12.27;6.10;;;7.50;99.90;;;;;;5058523;28;20482;-51
2023/10/20 09:16:47;;;;;;;10.33;4.90;;;7.50;99.90;;;;;;5058642;28;20432;-50
2023/10/20 09:19:15;;;;;;;8.70;5.40;;;7.50;99.90;;;;;;5058797;28;20392;-50
2023/10/20 09:21:46;;;;;;;7.97;4.90;;;7.50;99.90;;;;;;5058577;28;20463;-50
2023/10/20 09:24:17;;;;;;;8.03;5.87;;;7.50;99.90;;;;;;5058655;28;20405;-52
2023/10/20 09:26:44;;;;;;;9.33;5.70;;;7.50;99.90;;;;;;5058576;28;20432;-49
2023/10/20 09:29:13;;;;;;;7.33;5.70;;;7.50;99.90;;;;;;5058340;28;20424;-47
2023/10/20 09:31:43;;;;;;;6.40;4.80;;;7.40;99.90;;;;;;5058210;28;20448;-48
2023/10/20 09:34:10;;;;;;;10.07;5.67;;;7.50;99.90;;;;;;5058225;28;20440;-47
2023/10/20 09:36:44;;;;;;;7.50;5.03;;;7.50;99.90;;;;;;5057891;28;20408;-50
2023/10/20 09:39:20;;;;;;;7.97;5.17;;;7.40;99.90;;;;;;5058502;28;20404;-50
2023/10/20 09:41:53;;;;;;;9.57;6.10;;;7.50;99.90;;;;;;5058444;28;20443;-47
2023/10/20 09:44:27;;;;;;;7.73;5.23;;;7.40;99.90;;;;;;5058580;28;20404;-50
2023/10/20 09:46:57;;;;;;;4.73;4.23;;;7.40;99.90;;;;;;5058403;28;20411;-51
2023/10/20 09:49:28;;;;;;;7.13;5.80;;;7.40;99.90;;;;;;5058438;28;20404;-50
2023/10/20 09:51:58;;;;;;;6.33;4.40;;;7.40;99.90;;;;;;5058367;28;20431;-49
2023/10/20 09:54:27;;;;;;;8.47;4.57;;;7.40;99.90;;;;;;5058343;28;20471;-54
2023/10/20 09:56:55;;;;;;;7.67;4.83;;;7.50;99.90;;;;;;5058474;28;20410;-51
2023/10/20 09:59:27;;;;;;;6.80;4.50;;;7.50;99.90;;;;;;5058394;28;20412;-55
2023/10/20 10:01:55;;;;;;;9.53;5.93;;;7.50;99.90;;;;;;5058350;28;20436;-51
2023/10/20 10:04:28;;;;;;;4.80;3.87;;;7.50;99.90;;;;;;5058431;28;20424;-54
2023/10/20 10:07:03;;;;;;;6.27;3.57;;;7.60;99.90;;;;;;5058502;28;20459;-54
2023/10/20 10:09:36;;;;;;;4.53;3.77;;;7.60;99.90;;;;;;5061948;28;20435;-55
2023/10/20 10:12:08;;;;;;;4.97;3.90;;;7.60;99.90;;;;;;5061944;28;20476;-53
2023/10/20 10:14:39;;;;;;;5.70;3.90;;;7.60;99.90;;;;;;5061644;28;20523;-52
2023/10/20 10:17:09;;;;;;;6.37;3.80;;;7.60;99.90;;;;;;5061701;28;20437;-52
2023/10/20 10:19:48;;;;;;;4.87;3.60;;;7.60;99.90;;;;;;5061779;28;20432;-53
2023/10/20 10:22:23;;;;;;;7.40;4.10;;;7.50;99.90;;;;;;5061779;28;20405;-51
2023/10/20 10:24:52;;;;;;;7.03;4.53;;;7.50;99.90;;;;;;5061690;28;20451;-56
2023/10/20 10:27:22;;;;;;;8.23;4.67;;;7.50;99.90;;;;;;5061637;28;20420;-50
2023/10/20 10:29:53;;;;;;;6.10;3.83;;;7.50;99.90;;;;;;5061552;28;20519;-53
2023/10/20 10:32:21;;;;;;;7.53;3.43;;;7.50;99.90;;;;;;5061630;28;20423;-56
2023/10/20 10:34:51;;;;;;;7.80;4.10;;;7.50;99.90;;;;;;5061270;28;20475;-56
2023/10/20 10:37:28;;;;;;;5.50;3.63;;;7.50;99.90;;;;;;5061387;28;20405;-48
2023/10/20 10:40:04;;;;;;;7.20;4.30;;;7.60;99.90;;;;;;5061271;28;20459;-52
2023/10/20 10:42:31;;;;;;;5.00;3.23;;;7.50;99.90;;;;;;5061477;28;20440;-52
2023/10/20 10:44:58;;;;;;;4.97;4.13;;;7.50;99.90;;;;;;5061268;28;20439;-54
2023/10/20 10:47:25;;;;;;;5.30;4.40;;;7.50;99.90;;;;;;5061202;28;20420;-56
2023/10/20 10:49:57;;;;;;;4.43;3.40;;;7.50;99.90;;;;;;5061267;28;20459;-55
2023/10/20 10:52:25;;;;;;;4.27;3.13;;;7.50;99.90;;;;;;5061156;28;20428;-53
2023/10/20 10:54:55;;;;;;;7.80;4.50;;;7.50;99.90;;;;;;5061004;28;20492;-50
2023/10/20 10:57:22;;;;;;;5.77;3.57;;;7.50;99.90;;;;;;5061114;28;20467;-50
2023/10/20 10:59:59;;;;;;;4.23;2.87;;;7.40;99.90;;;;;;5060922;28;20412;-51
2023/10/20 11:02:28;;;;;;;5.40;3.53;;;7.40;99.90;;;;;;5060968;28;20443;-50
2023/10/20 11:04:58;;;;;;;3.10;2.70;;;7.40;99.90;;;;;;5060728;28;20405;-52
2023/10/20 11:07:26;;;;;;;6.63;4.53;;;7.40;99.90;;;;;;5060885;28;20431;-53
2023/10/20 11:09:55;;;;;;;6.77;4.50;;;7.40;99.90;;;;;;5060714;28;20413;-50
2023/10/20 11:12:25;;;;;;;4.87;3.40;;;7.40;99.90;;;;;;5060726;28;20708;-53
2023/10/20 11:14:57;;;;;;;6.10;3.90;;;7.40;99.90;;;;;;5060621;28;20478;-49
2023/10/20 11:17:25;;;;;;;6.20;3.40;;;7.30;99.90;;;;;;5060684;28;20409;-50
2023/10/20 11:19:52;;;;;;;6.87;3.57;;;7.40;99.90;;;;;;5059732;28;20428;-54
2023/10/20 11:22:19;;;;;;;5.00;3.40;;;7.40;99.90;;;;;;5060658;28;20417;-51
2023/10/20 11:24:55;;;;;;;7.97;4.10;;;7.40;99.90;;;;;;5060635;28;20420;-49
2023/10/20 11:27:22;;;;;;;6.33;3.90;;;7.40;99.90;;;;;;5060445;28;20503;-49
2023/10/20 11:29:52;;;;;;;4.43;3.23;;;7.50;99.90;;;;;;5060483;28;20459;-55
2023/10/20 11:32:20;;;;;;;5.30;3.90;;;7.40;99.90;;;;;;5060469;28;20444;-52
2023/10/20 11:34:47;;;;;;;4.43;3.73;;;7.50;99.90;;;;;;5060408;28;20455;-54
2023/10/20 11:37:15;;;;;;;4.67;3.40;;;7.50;99.90;;;;;;5060239;28;20444;-49
2023/10/20 11:39:42;;;;;;;6.23;3.33;;;7.50;99.90;;;;;;5060417;28;20436;-47
2023/10/20 11:42:13;;;;;;;8.93;4.70;;;7.50;99.90;;;;;;5059804;28;20441;-52
2023/10/20 11:44:40;;;;;;;3.77;3.17;;;7.50;99.90;;;;;;5060305;28;20425;-54
2023/10/20 11:47:07;;;;;;;7.27;3.03;;;7.50;99.90;;;;;;5060024;28;20439;-52
2023/10/20 11:49:34;;;;;;;3.97;3.07;;;7.50;99.90;;;;;;5060132;28;20421;-51
2023/10/20 11:52:08;;;;;;;4.23;2.80;;;7.50;99.90;;;;;;5059990;28;20464;-51
2023/10/20 11:54:36;;;;;;;3.47;2.20;;;7.50;99.90;;;;;;5060045;28;20476;-48
2023/10/20 11:57:03;;;;;;;4.43;3.80;;;7.60;99.90;;;;;;5060068;28;20436;-52
2023/10/20 11:59:33;;;;;;;3.97;2.70;;;7.50;99.90;;;;;;5060084;28;20414;-51
2023/10/20 12:01:59;;;;;;;7.67;4.00;;;7.50;99.90;;;;;;5059854;28;20454;-50
2023/10/20 12:04:26;;;;;;;7.33;3.97;;;7.50;99.90;;;;;;5059828;28;20421;-50
2023/10/20 12:06:56;;;;;;;7.23;3.30;;;7.60;99.90;;;;;;5059802;28;20405;-51
2023/10/20 12:09:23;;;;;;;6.17;3.17;;;7.60;99.90;;;;;;5059883;28;20405;-47
2023/10/20 12:11:52;;;;;;;4.30;2.77;;;7.50;99.90;;;;;;5059809;28;20443;-51
2023/10/20 12:14:18;;;;;;;3.23;2.43;;;7.60;99.90;;;;;;5059765;28;20424;-49
2023/10/20 12:16:47;;;;;;;5.37;3.00;;;7.60;99.90;;;;;;5059725;28;20436;-50
2023/10/20 12:19:14;;;;;;;3.73;2.50;;;7.60;99.90;;;;;;5059582;28;20423;-50
2023/10/20 12:21:41;;;;;;;7.07;3.10;;;7.50;99.90;;;;;;5059509;28;20432;-52
2023/10/20 12:24:09;;;;;;;3.63;2.63;;;7.50;99.90;;;;;;5059561;28;20458;-53
2023/10/20 12:26:36;;;;;;;3.97;3.20;;;7.60;99.90;;;;;;5059632;28;20416;-51
2023/10/20 12:29:03;;;;;;;3.43;2.20;;;7.60;99.90;;;;;;5059311;28;20463;-50
2023/10/20 12:31:30;;;;;;;4.30;2.17;;;7.60;99.90;;;;;;5058661;28;20419;-51
2023/10/20 12:34:01;;;;;;;3.60;2.70;;;7.70;99.90;;;;;;5059341;28;20455;-49
2023/10/20 12:36:31;;;;;;;5.23;3.03;;;7.60;99.90;;;;;;5059312;28;20463;-51
2023/10/20 12:38:58;;;;;;;2.27;1.80;;;7.60;99.90;;;;;;5059224;28;20436;-51
2023/10/20 12:41:25;;;;;;;2.77;2.40;;;7.60;99.90;;;;;;5059386;28;20401;-53
2023/10/20 12:43:51;;;;;;;4.20;2.43;;;7.70;99.90;;;;;;5059136;28;20436;-53
2023/10/20 12:46:18;;;;;;;4.40;2.80;;;7.70;99.90;;;;;;5059189;28;20416;-55
2023/10/20 12:48:48;;;;;;;3.47;2.37;;;7.60;99.90;;;;;;5059108;28;20478;-51
2023/10/20 12:51:16;;;;;;;5.23;2.33;;;7.70;99.90;;;;;;5058977;28;20447;-54
2023/10/20 12:53:43;;;;;;;7.83;2.00;;;7.70;99.90;;;;;;5059034;28;20408;-54
2023/10/20 12:56:10;;;;;;;2.37;1.57;;;7.60;99.90;;;;;;5058944;28;20575;-54
2023/10/20 12:58:37;;;;;;;4.00;2.07;;;7.70;99.90;;;;;;5059077;28;20412;-50
2023/10/20 13:01:04;;;;;;;2.80;2.50;;;7.60;99.90;;;;;;5059002;28;20401;-52
2023/10/20 13:03:36;;;;;;;1.97;1.70;;;7.70;99.90;;;;;;5058982;28;20416;-50
2023/10/20 13:06:03;;;;;;;3.50;2.33;;;7.70;99.90;;;;;;5059031;28;20443;-49
2023/10/20 13:08:32;;;;;;;3.00;2.27;;;7.70;99.90;;;;;;5058975;28;20429;-51
2023/10/20 13:10:59;;;;;;;2.70;2.00;;;7.70;99.90;;;;;;5058974;28;20412;-51
2023/10/20 13:13:27;;;;;;;2.53;1.80;;;7.70;99.90;;;;;;5058810;28;20413;-50
2023/10/20 13:15:54;;;;;;;4.60;2.50;;;7.70;99.90;;;;;;5058770;28;20464;-50
2023/10/20 13:18:23;;;;;;;2.30;2.00;;;7.70;99.90;;;;;;5058892;28;20433;-49
2023/10/20 13:20:50;;;;;;;3.67;2.23;;;7.70;99.90;;;;;;5058654;28;20436;-48
2023/10/20 13:23:17;;;;;;;2.63;1.80;;;7.70;99.90;;;;;;5058781;28;20436;-52
2023/10/20 13:25:45;;;;;;;2.63;1.63;;;7.70;99.90;;;;;;5058623;28;20433;-50